Weather at Akbarpur Mahamaya Rajkiya Airport

Public forecast

Using degrees Celsius for public forecast. Weather courtesy of forecast.io.

Closest aviation weather report (METAR) to Akbarpur Mahamaya Rajkiya Airport

Report is more than 6 hours old.

Closest report is Gorakhpur Airport, 50.5 nm (93.5 km) ENE.

2024/05/19 18:00 (retrieved 11 hours ago)

VEGK 191800Z 11006KT 6000 SKC 32/26 Q1001 NOSIG

Closest aviation forecast (TAF) to Akbarpur Mahamaya Rajkiya Airport

Forecast is more than 12 hours old.

Closest forecast is Gorakhpur Airport, 50.5 nm (93.5 km) ENE.

2024/05/19 12:00 (retrieved 17 hours ago)

TAF VEGK 190930Z 1912/1924 14008KT 6000 FEW030 SCT250 BECMG 1915/1918 VRB02KT 6000 NSC BECMG 1922/1924 5000 HZ